sensor_id;sensor_type;location;lat;lon;timestamp;temperature;humidity
5556;DHT22;2801;50.972;7.856;2023-07-29T00:01:57;17.80;99.90
5556;DHT22;2801;50.972;7.856;2023-07-29T00:04:24;17.80;99.90
5556;DHT22;2801;50.972;7.856;2023-07-29T00:06:51;17.80;99.90
5556;DHT22;2801;50.972;7.856;2023-07-29T00:09:18;17.70;99.90
5556;DHT22;2801;50.972;7.856;2023-07-29T00:11:45;17.70;99.90
5556;DHT22;2801;50.972;7.856;2023-07-29T00:14:12;17.70;99.90
5556;DHT22;2801;50.972;7.856;2023-07-29T00:16:39;17.60;99.90
5556;DHT22;2801;50.972;7.856;2023-07-29T00:19:10;17.60;99.90
5556;DHT22;2801;50.972;7.856;2023-07-29T00:21:37;17.60;99.90
5556;DHT22;2801;50.972;7.856;2023-07-29T00:24:04;17.60;99.90
5556;DHT22;2801;50.972;7.856;2023-07-29T00:26:31;17.70;99.90
5556;DHT22;2801;50.972;7.856;2023-07-29T00:28:58;17.70;99.90
5556;DHT22;2801;50.972;7.856;2023-07-29T00:31:25;17.60;99.90
5556;DHT22;2801;50.972;7.856;2023-07-29T00:33:52;17.70;99.90
5556;DHT22;2801;50.972;7.856;2023-07-29T00:36:19;17.70;99.90
5556;DHT22;2801;50.972;7.856;2023-07-29T00:38:47;17.70;99.90
5556;DHT22;2801;50.972;7.856;2023-07-29T00:41:14;17.70;99.90
5556;DHT22;2801;50.972;7.856;2023-07-29T00:43:42;17.70;99.90
5556;DHT22;2801;50.972;7.856;2023-07-29T00:46:09;17.70;99.90
5556;DHT22;2801;50.972;7.856;2023-07-29T00:48:37;17.70;99.90
5556;DHT22;2801;50.972;7.856;2023-07-29T00:51:04;17.70;99.90
5556;DHT22;2801;50.972;7.856;2023-07-29T00:53:32;17.80;99.90
5556;DHT22;2801;50.972;7.856;2023-07-29T00:56:00;17.70;99.90
5556;DHT22;2801;50.972;7.856;2023-07-29T00:58:27;17.80;99.90
5556;DHT22;2801;50.972;7.856;2023-07-29T01:00:54;17.70;99.90
5556;DHT22;2801;50.972;7.856;2023-07-29T01:03:22;17.70;99.90
5556;DHT22;2801;50.972;7.856;2023-07-29T01:06:18;17.70;99.90
5556;DHT22;2801;50.972;7.856;2023-07-29T01:11:48;17.70;99.90
5556;DHT22;2801;50.972;7.856;2023-07-29T01:17:22;17.70;99.90
5556;DHT22;2801;50.972;7.856;2023-07-29T01:20:03;17.70;99.90
5556;DHT22;2801;50.972;7.856;2023-07-29T01:22:36;17.60;99.90
5556;DHT22;2801;50.972;7.856;2023-07-29T01:25:04;17.60;99.90
5556;DHT22;2801;50.972;7.856;2023-07-29T01:27:31;17.60;99.90
5556;DHT22;2801;50.972;7.856;2023-07-29T01:29:59;17.60;99.90
5556;DHT22;2801;50.972;7.856;2023-07-29T01:35:33;17.60;99.90
5556;DHT22;2801;50.972;7.856;2023-07-29T01:38:19;17.50;99.90
5556;DHT22;2801;50.972;7.856;2023-07-29T01:40:52;17.60;99.90
5556;DHT22;2801;50.972;7.856;2023-07-29T01:43:20;17.60;99.90
5556;DHT22;2801;50.972;7.856;2023-07-29T01:45:50;17.60;99.90
5556;DHT22;2801;50.972;7.856;2023-07-29T01:48:17;17.60;99.90
5556;DHT22;2801;50.972;7.856;2023-07-29T01:50:44;17.60;99.90
5556;DHT22;2801;50.972;7.856;2023-07-29T01:53:11;17.60;99.90
5556;DHT22;2801;50.972;7.856;2023-07-29T01:55:39;17.60;99.90
5556;DHT22;2801;50.972;7.856;2023-07-29T01:58:06;17.60;99.90
5556;DHT22;2801;50.972;7.856;2023-07-29T02:00:33;17.70;99.90
5556;DHT22;2801;50.972;7.856;2023-07-29T02:03:00;17.70;99.90
5556;DHT22;2801;50.972;7.856;2023-07-29T02:05:27;17.70;99.90
5556;DHT22;2801;50.972;7.856;2023-07-29T02:07:54;17.70;99.90
5556;DHT22;2801;50.972;7.856;2023-07-29T02:10:21;17.70;99.90
5556;DHT22;2801;50.972;7.856;2023-07-29T02:12:48;17.60;99.90
5556;DHT22;2801;50.972;7.856;2023-07-29T02:15:15;17.60;99.90
5556;DHT22;2801;50.972;7.856;2023-07-29T02:17:42;17.70;99.90
5556;DHT22;2801;50.972;7.856;2023-07-29T02:20:10;17.70;99.90
5556;DHT22;2801;50.972;7.856;2023-07-29T02:22:37;17.70;99.90
5556;DHT22;2801;50.972;7.856;2023-07-29T02:25:04;17.60;99.90
5556;DHT22;2801;50.972;7.856;2023-07-29T02:27:32;17.60;99.90
5556;DHT22;2801;50.972;7.856;2023-07-29T02:30:00;17.60;99.90
5556;DHT22;2801;50.972;7.856;2023-07-29T02:32:27;17.60;99.90
5556;DHT22;2801;50.972;7.856;2023-07-29T02:34:54;17.60;99.90
5556;DHT22;2801;50.972;7.856;2023-07-29T02:37:21;17.60;99.90
5556;DHT22;2801;50.972;7.856;2023-07-29T02:39:48;17.60;99.90
5556;DHT22;2801;50.972;7.856;2023-07-29T02:42:15;17.60;99.90
5556;DHT22;2801;50.972;7.856;2023-07-29T02:44:42;17.60;99.90
5556;DHT22;2801;50.972;7.856;2023-07-29T02:47:09;17.60;99.90
5556;DHT22;2801;50.972;7.856;2023-07-29T02:49:36;17.70;99.90
5556;DHT22;2801;50.972;7.856;2023-07-29T02:52:03;17.60;99.90
5556;DHT22;2801;50.972;7.856;2023-07-29T02:54:30;17.70;99.90
5556;DHT22;2801;50.972;7.856;2023-07-29T02:56:57;17.60;99.90
5556;DHT22;2801;50.972;7.856;2023-07-29T02:59:24;17.70;99.90
5556;DHT22;2801;50.972;7.856;2023-07-29T03:01:52;17.60;99.90
5556;DHT22;2801;50.972;7.856;2023-07-29T03:04:20;17.60;99.90
5556;DHT22;2801;50.972;7.856;2023-07-29T03:06:46;17.60;99.90
5556;DHT22;2801;50.972;7.856;2023-07-29T03:09:15;17.60;99.90
5556;DHT22;2801;50.972;7.856;2023-07-29T03:11:41;17.60;99.90
5556;DHT22;2801;50.972;7.856;2023-07-29T03:14:09;17.60;99.90
5556;DHT22;2801;50.972;7.856;2023-07-29T03:16:35;17.60;99.90
5556;DHT22;2801;50.972;7.856;2023-07-29T03:19:03;17.70;99.90
5556;DHT22;2801;50.972;7.856;2023-07-29T03:21:30;17.70;99.90
5556;DHT22;2801;50.972;7.856;2023-07-29T03:23:56;17.70;99.90
5556;DHT22;2801;50.972;7.856;2023-07-29T03:26:23;17.60;99.90
5556;DHT22;2801;50.972;7.856;2023-07-29T03:28:50;17.70;99.90
5556;DHT22;2801;50.972;7.856;2023-07-29T03:31:17;17.70;99.90
5556;DHT22;2801;50.972;7.856;2023-07-29T03:33:44;17.60;99.90
5556;DHT22;2801;50.972;7.856;2023-07-29T03:36:11;17.60;99.90
5556;DHT22;2801;50.972;7.856;2023-07-29T03:38:38;17.60;99.90
5556;DHT22;2801;50.972;7.856;2023-07-29T03:41:08;17.60;99.90
5556;DHT22;2801;50.972;7.856;2023-07-29T03:43:35;17.50;99.90
5556;DHT22;2801;50.972;7.856;2023-07-29T03:46:02;17.60;99.90
5556;DHT22;2801;50.972;7.856;2023-07-29T03:48:30;17.60;99.90
5556;DHT22;2801;50.972;7.856;2023-07-29T03:50:58;17.60;99.90
5556;DHT22;2801;50.972;7.856;2023-07-29T03:53:25;17.60;99.90
5556;DHT22;2801;50.972;7.856;2023-07-29T03:55:52;17.60;99.90
5556;DHT22;2801;50.972;7.856;2023-07-29T03:58:19;17.60;99.90
5556;DHT22;2801;50.972;7.856;2023-07-29T04:00:46;17.60;99.90
5556;DHT22;2801;50.972;7.856;2023-07-29T04:03:13;17.60;99.90
5556;DHT22;2801;50.972;7.856;2023-07-29T04:05:40;17.60;99.90
5556;DHT22;2801;50.972;7.856;2023-07-29T04:08:07;17.60;99.90
5556;DHT22;2801;50.972;7.856;2023-07-29T04:10:34;17.60;99.90
5556;DHT22;2801;50.972;7.856;2023-07-29T04:13:01;17.60;99.90
5556;DHT22;2801;50.972;7.856;2023-07-29T04:15:29;17.60;99.90
5556;DHT22;2801;50.972;7.856;2023-07-29T04:17:56;17.60;99.90
5556;DHT22;2801;50.972;7.856;2023-07-29T04:20:23;17.60;99.90
5556;DHT22;2801;50.972;7.856;2023-07-29T04:22:50;17.60;99.90
5556;DHT22;2801;50.972;7.856;2023-07-29T04:25:17;17.60;99.90
5556;DHT22;2801;50.972;7.856;2023-07-29T04:27:44;17.60;99.90
5556;DHT22;2801;50.972;7.856;2023-07-29T04:30:11;17.60;99.90
5556;DHT22;2801;50.972;7.856;2023-07-29T04:32:38;17.70;99.90
5556;DHT22;2801;50.972;7.856;2023-07-29T04:35:05;17.70;99.90
5556;DHT22;2801;50.972;7.856;2023-07-29T04:37:32;17.60;99.90
5556;DHT22;2801;50.972;7.856;2023-07-29T04:39:59;17.70;99.90
5556;DHT22;2801;50.972;7.856;2023-07-29T04:42:26;17.60;99.90
5556;DHT22;2801;50.972;7.856;2023-07-29T04:44:53;17.60;99.90
5556;DHT22;2801;50.972;7.856;2023-07-29T04:47:20;17.60;99.90
5556;DHT22;2801;50.972;7.856;2023-07-29T04:49:47;17.50;99.90
5556;DHT22;2801;50.972;7.856;2023-07-29T04:52:15;17.60;99.90
5556;DHT22;2801;50.972;7.856;2023-07-29T04:54:42;17.60;99.90
5556;DHT22;2801;50.972;7.856;2023-07-29T04:57:09;17.60;99.90
5556;DHT22;2801;50.972;7.856;2023-07-29T04:59:37;17.50;99.90
5556;DHT22;2801;50.972;7.856;2023-07-29T05:02:04;17.50;99.90
5556;DHT22;2801;50.972;7.856;2023-07-29T05:04:31;17.60;99.90
5556;DHT22;2801;50.972;7.856;2023-07-29T05:06:58;17.50;99.90
5556;DHT22;2801;50.972;7.856;2023-07-29T05:09:25;17.50;99.90
5556;DHT22;2801;50.972;7.856;2023-07-29T05:11:54;17.50;99.90
5556;DHT22;2801;50.972;7.856;2023-07-29T05:14:21;17.60;99.90
5556;DHT22;2801;50.972;7.856;2023-07-29T05:16:49;17.60;99.90
5556;DHT22;2801;50.972;7.856;2023-07-29T05:19:19;17.60;99.90
5556;DHT22;2801;50.972;7.856;2023-07-29T05:21:46;17.50;99.90
5556;DHT22;2801;50.972;7.856;2023-07-29T05:24:13;17.60;99.90
5556;DHT22;2801;50.972;7.856;2023-07-29T05:26:39;17.60;99.90
5556;DHT22;2801;50.972;7.856;2023-07-29T05:29:06;17.60;99.90
5556;DHT22;2801;50.972;7.856;2023-07-29T05:31:33;17.60;99.90
5556;DHT22;2801;50.972;7.856;2023-07-29T05:34:00;17.60;99.90
5556;DHT22;2801;50.972;7.856;2023-07-29T05:36:27;17.60;99.90
5556;DHT22;2801;50.972;7.856;2023-07-29T05:38:54;17.60;99.90
5556;DHT22;2801;50.972;7.856;2023-07-29T05:41:21;17.60;99.90
5556;DHT22;2801;50.972;7.856;2023-07-29T05:43:48;17.60;99.90
5556;DHT22;2801;50.972;7.856;2023-07-29T05:46:15;17.70;99.90
5556;DHT22;2801;50.972;7.856;2023-07-29T05:48:42;17.60;99.90
5556;DHT22;2801;50.972;7.856;2023-07-29T05:51:09;17.60;99.90
5556;DHT22;2801;50.972;7.856;2023-07-29T05:53:36;17.60;99.90
5556;DHT22;2801;50.972;7.856;2023-07-29T05:56:03;17.60;99.90
5556;DHT22;2801;50.972;7.856;2023-07-29T05:58:30;17.70;99.90
5556;DHT22;2801;50.972;7.856;2023-07-29T06:00:58;17.70;99.90
5556;DHT22;2801;50.972;7.856;2023-07-29T06:03:25;17.70;99.90
5556;DHT22;2801;50.972;7.856;2023-07-29T06:05:53;17.80;99.90
5556;DHT22;2801;50.972;7.856;2023-07-29T06:08:21;17.70;99.90
5556;DHT22;2801;50.972;7.856;2023-07-29T06:10:48;17.60;99.90
5556;DHT22;2801;50.972;7.856;2023-07-29T06:13:15;17.70;99.90
5556;DHT22;2801;50.972;7.856;2023-07-29T06:15:42;17.70;99.90
5556;DHT22;2801;50.972;7.856;2023-07-29T06:18:08;17.70;99.90
5556;DHT22;2801;50.972;7.856;2023-07-29T06:20:35;17.70;99.90
5556;DHT22;2801;50.972;7.856;2023-07-29T06:23:03;17.60;99.90
5556;DHT22;2801;50.972;7.856;2023-07-29T06:25:30;17.60;99.90
5556;DHT22;2801;50.972;7.856;2023-07-29T06:27:57;17.60;99.90
5556;DHT22;2801;50.972;7.856;2023-07-29T06:30:25;17.50;99.90
5556;DHT22;2801;50.972;7.856;2023-07-29T06:32:52;17.50;99.90
5556;DHT22;2801;50.972;7.856;2023-07-29T06:35:19;17.50;99.90
5556;DHT22;2801;50.972;7.856;2023-07-29T06:37:46;17.60;99.90
5556;DHT22;2801;50.972;7.856;2023-07-29T06:40:13;17.60;99.90
5556;DHT22;2801;50.972;7.856;2023-07-29T06:42:40;17.60;99.90
5556;DHT22;2801;50.972;7.856;2023-07-29T06:45:08;17.60;99.90
5556;DHT22;2801;50.972;7.856;2023-07-29T06:47:35;17.70;99.90
5556;DHT22;2801;50.972;7.856;2023-07-29T06:50:02;17.70;99.90
5556;DHT22;2801;50.972;7.856;2023-07-29T06:52:29;17.70;99.90
5556;DHT22;2801;50.972;7.856;2023-07-29T06:54:56;17.80;99.90
5556;DHT22;2801;50.972;7.856;2023-07-29T06:57:23;17.80;99.90
5556;DHT22;2801;50.972;7.856;2023-07-29T06:59:50;17.80;99.90
5556;DHT22;2801;50.972;7.856;2023-07-29T07:02:17;17.80;99.90
5556;DHT22;2801;50.972;7.856;2023-07-29T07:04:44;17.80;99.90
5556;DHT22;2801;50.972;7.856;2023-07-29T07:07:10;17.80;99.90
5556;DHT22;2801;50.972;7.856;2023-07-29T07:09:37;17.80;99.90
5556;DHT22;2801;50.972;7.856;2023-07-29T07:12:04;17.80;99.90
5556;DHT22;2801;50.972;7.856;2023-07-29T07:14:32;17.80;99.90
5556;DHT22;2801;50.972;7.856;2023-07-29T07:16:59;17.80;99.90
5556;DHT22;2801;50.972;7.856;2023-07-29T07:19:26;17.80;99.90
5556;DHT22;2801;50.972;7.856;2023-07-29T07:21:53;18.00;99.90
5556;DHT22;2801;50.972;7.856;2023-07-29T07:24:20;17.80;99.90
5556;DHT22;2801;50.972;7.856;2023-07-29T07:26:46;17.90;99.90
5556;DHT22;2801;50.972;7.856;2023-07-29T07:29:13;17.80;99.90
5556;DHT22;2801;50.972;7.856;2023-07-29T07:31:40;17.80;99.90
5556;DHT22;2801;50.972;7.856;2023-07-29T07:34:07;17.80;99.90
5556;DHT22;2801;50.972;7.856;2023-07-29T07:36:34;17.90;99.90
5556;DHT22;2801;50.972;7.856;2023-07-29T07:39:02;18.00;99.90
5556;DHT22;2801;50.972;7.856;2023-07-29T07:41:29;18.00;99.90
5556;DHT22;2801;50.972;7.856;2023-07-29T07:43:56;18.10;99.90
5556;DHT22;2801;50.972;7.856;2023-07-29T07:46:22;18.20;99.90
5556;DHT22;2801;50.972;7.856;2023-07-29T07:48:49;18.20;99.90
5556;DHT22;2801;50.972;7.856;2023-07-29T07:51:16;18.40;99.90
5556;DHT22;2801;50.972;7.856;2023-07-29T07:53:43;18.80;99.90
5556;DHT22;2801;50.972;7.856;2023-07-29T07:56:10;18.90;99.90
5556;DHT22;2801;50.972;7.856;2023-07-29T07:58:37;18.90;99.90
5556;DHT22;2801;50.972;7.856;2023-07-29T08:01:06;18.80;99.90
5556;DHT22;2801;50.972;7.856;2023-07-29T08:03:38;18.70;99.90
5556;DHT22;2801;50.972;7.856;2023-07-29T08:06:05;18.60;99.90
5556;DHT22;2801;50.972;7.856;2023-07-29T08:08:36;18.70;99.90
5556;DHT22;2801;50.972;7.856;2023-07-29T08:11:03;18.90;99.90
5556;DHT22;2801;50.972;7.856;2023-07-29T08:13:29;19.00;99.90
5556;DHT22;2801;50.972;7.856;2023-07-29T08:15:57;19.10;99.90
5556;DHT22;2801;50.972;7.856;2023-07-29T08:18:23;19.10;99.90
5556;DHT22;2801;50.972;7.856;2023-07-29T08:20:58;19.20;99.90
5556;DHT22;2801;50.972;7.856;2023-07-29T08:23:30;19.20;99.90
5556;DHT22;2801;50.972;7.856;2023-07-29T08:26:00;19.10;99.90
5556;DHT22;2801;50.972;7.856;2023-07-29T08:28:33;19.10;99.90
5556;DHT22;2801;50.972;7.856;2023-07-29T08:31:01;18.90;99.90
5556;DHT22;2801;50.972;7.856;2023-07-29T08:33:29;18.90;99.90
5556;DHT22;2801;50.972;7.856;2023-07-29T08:35:57;18.80;99.90
5556;DHT22;2801;50.972;7.856;2023-07-29T08:38:24;18.70;99.90
5556;DHT22;2801;50.972;7.856;2023-07-29T08:43:59;18.30;99.90
5556;DHT22;2801;50.972;7.856;2023-07-29T08:46:36;18.20;99.90
5556;DHT22;2801;50.972;7.856;2023-07-29T08:49:05;18.20;99.90
5556;DHT22;2801;50.972;7.856;2023-07-29T08:51:33;18.20;99.90
5556;DHT22;2801;50.972;7.856;2023-07-29T08:54:02;18.20;99.90
5556;DHT22;2801;50.972;7.856;2023-07-29T08:56:30;18.30;99.90
5556;DHT22;2801;50.972;7.856;2023-07-29T08:58:57;18.50;99.90
5556;DHT22;2801;50.972;7.856;2023-07-29T09:01:27;18.60;99.90
5556;DHT22;2801;50.972;7.856;2023-07-29T09:03:55;18.70;99.90
5556;DHT22;2801;50.972;7.856;2023-07-29T09:06:23;18.80;99.90
5556;DHT22;2801;50.972;7.856;2023-07-29T09:08:53;18.80;99.90
5556;DHT22;2801;50.972;7.856;2023-07-29T09:11:23;18.90;99.90
5556;DHT22;2801;50.972;7.856;2023-07-29T09:13:50;19.10;99.90
5556;DHT22;2801;50.972;7.856;2023-07-29T09:16:17;19.10;99.90
5556;DHT22;2801;50.972;7.856;2023-07-29T09:18:45;19.20;99.90
5556;DHT22;2801;50.972;7.856;2023-07-29T09:21:17;19.40;99.90
5556;DHT22;2801;50.972;7.856;2023-07-29T09:23:44;19.40;99.90
5556;DHT22;2801;50.972;7.856;2023-07-29T09:26:11;19.30;99.90
5556;DHT22;2801;50.972;7.856;2023-07-29T09:28:40;19.40;99.90
5556;DHT22;2801;50.972;7.856;2023-07-29T09:31:19;19.50;99.90
5556;DHT22;2801;50.972;7.856;2023-07-29T09:33:49;19.70;99.90
5556;DHT22;2801;50.972;7.856;2023-07-29T09:36:21;19.80;99.90
5556;DHT22;2801;50.972;7.856;2023-07-29T09:38:52;19.80;99.90
5556;DHT22;2801;50.972;7.856;2023-07-29T09:41:28;19.70;99.90
5556;DHT22;2801;50.972;7.856;2023-07-29T09:43:59;19.60;99.90
5556;DHT22;2801;50.972;7.856;2023-07-29T09:46:37;19.70;99.90
5556;DHT22;2801;50.972;7.856;2023-07-29T09:49:07;19.80;99.90
5556;DHT22;2801;50.972;7.856;2023-07-29T09:51:41;19.80;99.90
5556;DHT22;2801;50.972;7.856;2023-07-29T09:54:08;19.80;99.90
5556;DHT22;2801;50.972;7.856;2023-07-29T09:56:41;19.80;99.90
5556;DHT22;2801;50.972;7.856;2023-07-29T09:59:09;19.70;99.90
5556;DHT22;2801;50.972;7.856;2023-07-29T10:01:38;19.80;99.90
5556;DHT22;2801;50.972;7.856;2023-07-29T10:04:06;19.80;99.90
5556;DHT22;2801;50.972;7.856;2023-07-29T10:06:39;20.10;99.90
5556;DHT22;2801;50.972;7.856;2023-07-29T10:09:07;20.40;99.90
5556;DHT22;2801;50.972;7.856;2023-07-29T10:11:37;20.50;99.90
5556;DHT22;2801;50.972;7.856;2023-07-29T10:14:06;20.40;99.90
5556;DHT22;2801;50.972;7.856;2023-07-29T10:16:36;20.30;99.90
5556;DHT22;2801;50.972;7.856;2023-07-29T10:19:07;20.20;99.90
5556;DHT22;2801;50.972;7.856;2023-07-29T10:21:36;20.10;99.90
5556;DHT22;2801;50.972;7.856;2023-07-29T10:24:11;20.10;99.90
5556;DHT22;2801;50.972;7.856;2023-07-29T10:26:46;20.00;99.90
5556;DHT22;2801;50.972;7.856;2023-07-29T10:29:19;19.90;99.90
5556;DHT22;2801;50.972;7.856;2023-07-29T10:31:52;19.90;99.90
5556;DHT22;2801;50.972;7.856;2023-07-29T10:34:21;19.90;99.90
5556;DHT22;2801;50.972;7.856;2023-07-29T10:36:50;19.90;99.90
5556;DHT22;2801;50.972;7.856;2023-07-29T10:39:19;19.90;99.90
5556;DHT22;2801;50.972;7.856;2023-07-29T10:42:00;20.00;99.90
5556;DHT22;2801;50.972;7.856;2023-07-29T10:49:55;20.60;99.90
5556;DHT22;2801;50.972;7.856;2023-07-29T10:55:01;20.80;99.90
5556;DHT22;2801;50.972;7.856;2023-07-29T10:57:35;21.20;99.90
5556;DHT22;2801;50.972;7.856;2023-07-29T11:00:05;21.40;99.90
5556;DHT22;2801;50.972;7.856;2023-07-29T11:02:35;21.30;99.90
5556;DHT22;2801;50.972;7.856;2023-07-29T11:05:07;21.30;99.90
5556;DHT22;2801;50.972;7.856;2023-07-29T11:07:44;21.40;99.90
5556;DHT22;2801;50.972;7.856;2023-07-29T11:10:14;21.50;99.90
5556;DHT22;2801;50.972;7.856;2023-07-29T11:12:45;21.50;99.90
5556;DHT22;2801;50.972;7.856;2023-07-29T11:15:24;21.50;99.90
5556;DHT22;2801;50.972;7.856;2023-07-29T11:20:25;21.50;99.90
5556;DHT22;2801;50.972;7.856;2023-07-29T11:22:55;21.50;99.90
5556;DHT22;2801;50.972;7.856;2023-07-29T11:25:24;21.40;99.90
5556;DHT22;2801;50.972;7.856;2023-07-29T11:27:54;21.40;99.90
5556;DHT22;2801;50.972;7.856;2023-07-29T11:30:22;21.30;99.90
5556;DHT22;2801;50.972;7.856;2023-07-29T11:32:50;21.20;99.90
5556;DHT22;2801;50.972;7.856;2023-07-29T11:35:17;21.20;99.90
5556;DHT22;2801;50.972;7.856;2023-07-29T11:37:47;21.00;99.90
5556;DHT22;2801;50.972;7.856;2023-07-29T11:40:17;21.00;99.90
5556;DHT22;2801;50.972;7.856;2023-07-29T11:42:49;21.00;99.90
5556;DHT22;2801;50.972;7.856;2023-07-29T11:45:18;21.00;99.90
5556;DHT22;2801;50.972;7.856;2023-07-29T11:47:46;21.10;99.90
5556;DHT22;2801;50.972;7.856;2023-07-29T11:50:14;21.10;99.90
5556;DHT22;2801;50.972;7.856;2023-07-29T11:52:44;21.00;99.90
5556;DHT22;2801;50.972;7.856;2023-07-29T11:55:14;21.00;99.90
5556;DHT22;2801;50.972;7.856;2023-07-29T11:57:43;21.00;99.90
5556;DHT22;2801;50.972;7.856;2023-07-29T12:00:11;21.00;99.90
5556;DHT22;2801;50.972;7.856;2023-07-29T12:02:42;21.00;99.90
5556;DHT22;2801;50.972;7.856;2023-07-29T12:05:13;20.90;99.90
5556;DHT22;2801;50.972;7.856;2023-07-29T12:07:43;20.70;99.90
5556;DHT22;2801;50.972;7.856;2023-07-29T12:10:11;20.60;99.90
5556;DHT22;2801;50.972;7.856;2023-07-29T12:12:45;20.50;99.90
5556;DHT22;2801;50.972;7.856;2023-07-29T12:15:13;20.50;99.90
5556;DHT22;2801;50.972;7.856;2023-07-29T12:17:53;20.60;99.90
5556;DHT22;2801;50.972;7.856;2023-07-29T12:20:23;20.60;99.90
5556;DHT22;2801;50.972;7.856;2023-07-29T12:22:55;20.50;99.90
5556;DHT22;2801;50.972;7.856;2023-07-29T12:25:23;20.60;99.90
5556;DHT22;2801;50.972;7.856;2023-07-29T12:27:52;20.60;99.90
5556;DHT22;2801;50.972;7.856;2023-07-29T12:30:23;20.70;99.90
5556;DHT22;2801;50.972;7.856;2023-07-29T12:32:51;20.90;99.90
5556;DHT22;2801;50.972;7.856;2023-07-29T12:35:19;21.00;99.90
5556;DHT22;2801;50.972;7.856;2023-07-29T12:37:46;21.10;99.90
5556;DHT22;2801;50.972;7.856;2023-07-29T12:40:23;21.20;99.90
5556;DHT22;2801;50.972;7.856;2023-07-29T12:42:51;21.20;99.90
5556;DHT22;2801;50.972;7.856;2023-07-29T12:45:19;21.20;99.90
5556;DHT22;2801;50.972;7.856;2023-07-29T12:47:49;21.30;99.90
5556;DHT22;2801;50.972;7.856;2023-07-29T12:50:16;21.20;99.90
5556;DHT22;2801;50.972;7.856;2023-07-29T12:52:43;21.20;99.90
5556;DHT22;2801;50.972;7.856;2023-07-29T12:55:10;21.20;99.90
5556;DHT22;2801;50.972;7.856;2023-07-29T12:57:41;21.20;99.90
5556;DHT22;2801;50.972;7.856;2023-07-29T13:00:10;21.20;99.90
5556;DHT22;2801;50.972;7.856;2023-07-29T13:02:37;21.20;99.90
5556;DHT22;2801;50.972;7.856;2023-07-29T13:05:05;21.20;99.90
5556;DHT22;2801;50.972;7.856;2023-07-29T13:07:43;21.20;99.90
5556;DHT22;2801;50.972;7.856;2023-07-29T13:10:11;21.20;99.90
5556;DHT22;2801;50.972;7.856;2023-07-29T13:12:38;21.30;99.90
5556;DHT22;2801;50.972;7.856;2023-07-29T13:15:06;21.40;99.90
5556;DHT22;2801;50.972;7.856;2023-07-29T13:17:34;21.60;99.90
5556;DHT22;2801;50.972;7.856;2023-07-29T13:20:01;21.70;99.90
5556;DHT22;2801;50.972;7.856;2023-07-29T13:22:29;21.90;99.90
5556;DHT22;2801;50.972;7.856;2023-07-29T13:24:56;21.90;99.90
5556;DHT22;2801;50.972;7.856;2023-07-29T13:27:22;22.10;99.90
5556;DHT22;2801;50.972;7.856;2023-07-29T13:29:50;22.40;99.90
5556;DHT22;2801;50.972;7.856;2023-07-29T13:32:17;22.60;99.90
5556;DHT22;2801;50.972;7.856;2023-07-29T13:34:44;22.70;99.90
5556;DHT22;2801;50.972;7.856;2023-07-29T13:37:11;22.80;99.90
5556;DHT22;2801;50.972;7.856;2023-07-29T13:39:38;22.60;99.90
5556;DHT22;2801;50.972;7.856;2023-07-29T13:42:05;22.40;99.90
5556;DHT22;2801;50.972;7.856;2023-07-29T13:44:32;22.20;99.90
5556;DHT22;2801;50.972;7.856;2023-07-29T13:46:59;22.00;99.90
5556;DHT22;2801;50.972;7.856;2023-07-29T13:49:26;22.00;99.90
5556;DHT22;2801;50.972;7.856;2023-07-29T13:51:53;22.00;99.90
5556;DHT22;2801;50.972;7.856;2023-07-29T13:54:20;22.00;99.90
5556;DHT22;2801;50.972;7.856;2023-07-29T13:56:48;22.00;99.90
5556;DHT22;2801;50.972;7.856;2023-07-29T13:59:15;21.90;99.90
5556;DHT22;2801;50.972;7.856;2023-07-29T14:01:42;21.90;99.90
5556;DHT22;2801;50.972;7.856;2023-07-29T14:04:09;21.80;99.90
5556;DHT22;2801;50.972;7.856;2023-07-29T14:06:36;21.70;99.90
5556;DHT22;2801;50.972;7.856;2023-07-29T14:09:12;21.60;99.90
5556;DHT22;2801;50.972;7.856;2023-07-29T14:11:39;21.50;99.90
5556;DHT22;2801;50.972;7.856;2023-07-29T14:14:07;21.50;99.90
5556;DHT22;2801;50.972;7.856;2023-07-29T14:16:34;21.50;99.90
5556;DHT22;2801;50.972;7.856;2023-07-29T14:19:02;21.40;99.90
5556;DHT22;2801;50.972;7.856;2023-07-29T14:21:29;21.30;99.90
5556;DHT22;2801;50.972;7.856;2023-07-29T14:23:56;21.20;99.90
5556;DHT22;2801;50.972;7.856;2023-07-29T14:26:23;21.20;99.90
5556;DHT22;2801;50.972;7.856;2023-07-29T14:28:50;21.10;99.90
5556;DHT22;2801;50.972;7.856;2023-07-29T14:31:18;20.90;99.90
5556;DHT22;2801;50.972;7.856;2023-07-29T14:33:45;20.80;99.90
5556;DHT22;2801;50.972;7.856;2023-07-29T14:36:12;20.70;99.90
5556;DHT22;2801;50.972;7.856;2023-07-29T14:38:39;20.60;99.90
5556;DHT22;2801;50.972;7.856;2023-07-29T14:41:06;20.60;99.90
5556;DHT22;2801;50.972;7.856;2023-07-29T14:43:34;20.50;99.90
5556;DHT22;2801;50.972;7.856;2023-07-29T14:46:01;20.30;99.90
5556;DHT22;2801;50.972;7.856;2023-07-29T14:48:29;20.30;99.90
5556;DHT22;2801;50.972;7.856;2023-07-29T14:50:56;20.30;99.90
5556;DHT22;2801;50.972;7.856;2023-07-29T14:53:23;20.30;99.90
5556;DHT22;2801;50.972;7.856;2023-07-29T14:55:51;20.40;99.90
5556;DHT22;2801;50.972;7.856;2023-07-29T14:58:18;20.60;99.90
5556;DHT22;2801;50.972;7.856;2023-07-29T15:00:45;21.00;99.90
5556;DHT22;2801;50.972;7.856;2023-07-29T15:03:12;21.40;99.90
5556;DHT22;2801;50.972;7.856;2023-07-29T15:05:39;21.60;99.90
5556;DHT22;2801;50.972;7.856;2023-07-29T15:08:07;21.70;99.90
5556;DHT22;2801;50.972;7.856;2023-07-29T15:10:34;21.70;99.90
5556;DHT22;2801;50.972;7.856;2023-07-29T15:13:01;21.70;99.90
5556;DHT22;2801;50.972;7.856;2023-07-29T15:15:29;21.90;99.90
5556;DHT22;2801;50.972;7.856;2023-07-29T15:17:56;22.10;99.90
5556;DHT22;2801;50.972;7.856;2023-07-29T15:20:24;22.40;99.90
5556;DHT22;2801;50.972;7.856;2023-07-29T15:22:50;22.60;99.90
5556;DHT22;2801;50.972;7.856;2023-07-29T15:25:17;22.60;99.90
5556;DHT22;2801;50.972;7.856;2023-07-29T15:27:44;22.70;99.90
5556;DHT22;2801;50.972;7.856;2023-07-29T15:30:11;22.90;99.90
5556;DHT22;2801;50.972;7.856;2023-07-29T15:32:39;23.10;99.90
5556;DHT22;2801;50.972;7.856;2023-07-29T15:35:08;23.30;99.90
5556;DHT22;2801;50.972;7.856;2023-07-29T15:37:35;23.60;99.90
5556;DHT22;2801;50.972;7.856;2023-07-29T15:40:03;23.70;99.90
5556;DHT22;2801;50.972;7.856;2023-07-29T15:42:31;23.80;99.90
5556;DHT22;2801;50.972;7.856;2023-07-29T15:44:58;23.80;99.90
5556;DHT22;2801;50.972;7.856;2023-07-29T15:47:25;23.70;99.90
5556;DHT22;2801;50.972;7.856;2023-07-29T15:49:52;23.70;99.90
5556;DHT22;2801;50.972;7.856;2023-07-29T15:52:19;23.80;99.90
5556;DHT22;2801;50.972;7.856;2023-07-29T15:54:45;23.70;99.90
5556;DHT22;2801;50.972;7.856;2023-07-29T15:57:12;23.50;99.90
5556;DHT22;2801;50.972;7.856;2023-07-29T15:59:39;23.30;99.90
5556;DHT22;2801;50.972;7.856;2023-07-29T16:02:06;23.20;99.90
5556;DHT22;2801;50.972;7.856;2023-07-29T16:04:35;23.10;99.90
5556;DHT22;2801;50.972;7.856;2023-07-29T16:07:02;22.90;99.90
5556;DHT22;2801;50.972;7.856;2023-07-29T16:09:29;22.70;99.90
5556;DHT22;2801;50.972;7.856;2023-07-29T16:11:56;22.60;99.90
5556;DHT22;2801;50.972;7.856;2023-07-29T16:14:23;22.60;99.90
5556;DHT22;2801;50.972;7.856;2023-07-29T16:16:50;22.60;99.90
5556;DHT22;2801;50.972;7.856;2023-07-29T16:19:23;22.80;99.90
5556;DHT22;2801;50.972;7.856;2023-07-29T16:21:52;22.90;99.90
5556;DHT22;2801;50.972;7.856;2023-07-29T16:24:19;22.90;99.90
5556;DHT22;2801;50.972;7.856;2023-07-29T16:26:46;22.90;99.90
5556;DHT22;2801;50.972;7.856;2023-07-29T16:29:13;22.90;99.90
5556;DHT22;2801;50.972;7.856;2023-07-29T16:31:40;22.80;99.90